Time;durP1;ratioP1;P1;durP2;ratioP2;P2;SDS_P1;SDS_P2;PMS_P1;PMS_P2;Temp;Humidity;BMP_temperature;BMP_pressure;BME280_temperature;BME280_humidity;BME280_pressure;Samples;Min_cycle;Max_cycle;Signal;HPM_P1;HPM_P2
2022/06/15 00:00:44;;;;;;;7.70;6.80;;;;;;;10.78;100.00;99468.17;105030;1271;61302;-71
2022/06/15 00:03:13;;;;;;;12.20;9.20;;;;;;;10.76;100.00;99468.49;105091;1271;61160;-70
2022/06/15 00:05:42;;;;;;;10.90;7.60;;;;;;;10.75;100.00;99467.11;105039;1271;75455;-70
2022/06/15 00:08:10;;;;;;;9.50;7.10;;;;;;;10.76;100.00;99467.80;105016;1271;69168;-70
2022/06/15 00:10:39;;;;;;;10.00;8.00;;;;;;;10.77;100.00;99466.67;104904;1271;72966;-70
2022/06/15 00:13:08;;;;;;;9.90;7.10;;;;;;;10.77;100.00;99465.07;105280;1270;61300;-71
2022/06/15 00:15:35;;;;;;;8.70;7.20;;;;;;;10.75;100.00;99464.59;105038;1271;62124;-70
2022/06/15 00:18:04;;;;;;;9.10;6.60;;;;;;;10.74;100.00;99464.66;105068;1271;75881;-71
2022/06/15 00:20:30;;;;;;;9.00;6.80;;;;;;;10.74;100.00;99468.78;105061;1271;70785;-70
2022/06/15 00:22:57;;;;;;;10.80;7.70;;;;;;;10.71;100.00;99471.08;105006;1271;73615;-70
2022/06/15 00:25:24;;;;;;;9.50;7.60;;;;;;;10.69;100.00;99469.43;105038;1271;61276;-70
2022/06/15 00:27:50;;;;;;;10.50;7.40;;;;;;;10.66;100.00;99470.70;104893;1271;61470;-70
2022/06/15 00:30:19;;;;;;;9.60;8.50;;;;;;;10.61;100.00;99468.71;105030;1271;61407;-70
2022/06/15 00:32:45;;;;;;;8.50;7.60;;;;;;;10.59;100.00;99473.78;105026;1271;69197;-70
2022/06/15 00:35:12;;;;;;;9.60;7.40;;;;;;;10.59;100.00;99473.92;105010;1270;61353;-70
2022/06/15 00:37:38;;;;;;;10.50;8.20;;;;;;;10.60;100.00;99471.93;105082;1271;61249;-70
2022/06/15 00:40:07;;;;;;;9.60;7.40;;;;;;;10.63;100.00;99478.86;105004;1271;61256;-70
2022/06/15 00:42:34;;;;;;;9.00;7.40;;;;;;;10.65;100.00;99476.45;104895;1271;76442;-70
2022/06/15 00:45:02;;;;;;;10.10;7.30;;;;;;;10.64;100.00;99475.77;105016;1271;69094;-71
2022/06/15 00:47:38;;;;;;;11.60;8.00;;;;;;;10.65;100.00;99471.85;105118;1271;72935;-71
2022/06/15 00:50:12;;;;;;;14.70;8.50;;;;;;;10.64;100.00;99471.16;105060;1268;61273;-71
2022/06/15 00:52:44;;;;;;;8.10;7.20;;;;;;;10.65;100.00;99468.13;105041;1271;61301;-71
2022/06/15 00:55:18;;;;;;;10.30;7.80;;;;;;;10.65;100.00;99464.66;104889;1271;74095;-71
2022/06/15 00:57:45;;;;;;;10.30;7.20;;;;;;;10.65;100.00;99464.88;105007;1271;70125;-72
2022/06/15 01:00:12;;;;;;;8.50;7.10;;;;;;;10.63;100.00;99460.04;104988;1271;74247;-70
2022/06/15 01:02:41;;;;;;;8.60;6.60;;;;;;;10.62;100.00;99461.35;105038;1271;61252;-70
2022/06/15 01:05:25;;;;;;;15.90;11.40;;;;;;;10.61;100.00;99460.48;105033;1271;61838;-71
2022/06/15 01:07:57;;;;;;;13.10;11.80;;;;;;;10.62;100.00;99458.48;105061;1271;74824;-70
2022/06/15 01:10:35;;;;;;;16.20;14.60;;;;;;;10.63;100.00;99458.08;104987;1274;68188;-70
2022/06/15 01:13:43;;;;;;;19.20;13.50;;;;;;;10.63;100.00;99458.45;105038;1271;74940;-68
2022/06/15 01:16:44;;;;;;;12.50;10.00;;;;;;;10.62;100.00;99458.16;104441;1279;61468;-71
2022/06/15 01:19:35;;;;;;;13.60;9.40;;;;;;;10.60;100.00;99457.04;104412;1281;61309;-70
2022/06/15 01:22:02;;;;;;;11.60;8.30;;;;;;;10.54;100.00;99461.95;104413;1279;75394;-69
2022/06/15 01:24:48;;;;;;;9.50;8.50;;;;;;;10.49;100.00;99466.04;104365;1279;61424;-70
2022/06/15 01:27:42;;;;;;;10.60;8.80;;;;;;;10.43;100.00;99466.19;104415;1279;74527;-71
2022/06/15 01:30:25;;;;;;;11.10;9.00;;;;;;;10.37;100.00;99465.12;104343;1280;61445;-71
2022/06/15 01:33:08;;;;;;;9.60;8.60;;;;;;;10.29;100.00;99462.34;104386;1279;62056;-71
2022/06/15 01:35:50;;;;;;;11.90;8.60;;;;;;;10.20;100.00;99469.09;104417;1279;75514;-71
2022/06/15 01:38:29;;;;;;;10.60;8.60;;;;;;;10.15;100.00;99470.95;104388;1279;69253;-70
2022/06/15 01:41:21;;;;;;;9.00;7.60;;;;;;;10.10;100.00;99467.18;104419;1279;74215;-70
2022/06/15 01:44:01;;;;;;;8.90;7.80;;;;;;;10.02;100.00;99468.66;103908;1285;61260;-70
2022/06/15 01:46:29;;;;;;;10.80;7.50;;;;;;;9.94;100.00;99462.23;103747;1286;61602;-71
2022/06/15 01:48:57;;;;;;;12.50;8.50;;;;;;;9.88;100.00;99462.38;103909;1285;76210;-72
2022/06/15 01:51:33;;;;;;;11.50;9.60;;;;;;;9.85;100.00;99461.52;103931;1285;70497;-71
2022/06/15 01:54:15;;;;;;;13.50;8.80;;;;;;;9.84;100.00;99459.40;104282;1279;73545;-71
2022/06/15 01:56:48;;;;;;;11.60;9.60;;;;;;;9.86;100.00;99460.52;104318;1279;61355;-71
2022/06/15 01:59:29;;;;;;;13.30;9.90;;;;;;;9.89;100.00;99460.73;104593;1279;62196;-70
2022/06/15 02:01:56;;;;;;;10.00;8.80;;;;;;;9.89;100.00;99458.05;104416;1279;75195;-72
2022/06/15 02:04:32;;;;;;;10.40;9.00;;;;;;;9.87;100.00;99456.04;104444;1279;70635;-71
2022/06/15 02:07:29;;;;;;;12.00;9.80;;;;;;;9.84;100.00;99456.75;104443;1279;74373;-71
2022/06/15 02:10:22;;;;;;;11.90;9.70;;;;;;;9.82;100.00;99456.52;104465;1279;61404;-71
2022/06/15 02:13:15;;;;;;;12.80;10.70;;;;;;;9.79;100.00;99455.05;104336;1279;61296;-71
2022/06/15 02:15:46;;;;;;;12.20;10.80;;;;;;;9.80;100.00;99455.05;103907;1285;75502;-71
2022/06/15 02:18:16;;;;;;;12.70;10.20;;;;;;;9.80;100.00;99455.95;103928;1285;69535;-71
2022/06/15 02:20:50;;;;;;;13.30;10.50;;;;;;;9.78;100.00;99459.23;104000;1280;73273;-71
2022/06/15 02:23:19;;;;;;;12.80;10.90;;;;;;;9.76;100.00;99457.23;104409;1279;61361;-70
2022/06/15 02:25:52;;;;;;;14.50;11.30;;;;;;;9.71;100.00;99458.73;104481;1279;61999;-72
2022/06/15 02:28:23;;;;;;;12.90;10.50;;;;;;;9.64;100.00;99452.20;104422;1279;75663;-71
2022/06/15 02:30:50;;;;;;;11.40;10.30;;;;;;;9.57;100.00;99454.00;104435;1279;69897;-71
2022/06/15 02:33:27;;;;;;;13.70;11.60;;;;;;;9.53;100.00;99455.30;104390;1279;74911;-71
2022/06/15 02:35:56;;;;;;;12.30;10.00;;;;;;;9.49;100.00;99455.35;104423;1279;61337;-71
2022/06/15 02:38:25;;;;;;;11.60;10.20;;;;;;;9.44;100.00;99457.20;104487;1279;61379;-70
2022/06/15 02:40:52;;;;;;;14.60;9.50;;;;;;;9.41;100.00;99460.36;104568;1279;75406;-71
2022/06/15 02:43:22;;;;;;;14.20;9.60;;;;;;;9.39;100.00;99462.45;104419;1279;70498;-70
2022/06/15 02:45:49;;;;;;;;;;;;;;;9.35;100.00;99462.11;104400;1279;73163;-71
2022/06/15 02:48:17;;;;;;;14.20;11.00;;;;;;;9.32;100.00;99463.88;104461;1278;61490;-71
2022/06/15 02:51:00;;;;;;;12.00;10.20;;;;;;;9.33;100.00;99471.45;104474;1279;61494;-71
2022/06/15 02:53:29;;;;;;;10.90;9.80;;;;;;;9.35;100.00;99471.73;104767;1271;75378;-70
2022/06/15 02:55:57;;;;;;;13.40;10.80;;;;;;;9.35;100.00;99470.10;105017;1271;69305;-70
2022/06/15 02:58:35;;;;;;;14.90;12.70;;;;;;;9.38;100.00;99467.84;105035;1271;73289;-70
2022/06/15 03:01:02;;;;;;;16.60;14.30;;;;;;;9.44;100.00;99471.06;105013;1271;61310;-70
2022/06/15 03:03:30;;;;;;;16.00;13.20;;;;;;;9.52;100.00;99470.95;105054;1271;61328;-70
2022/06/15 03:05:56;;;;;;;13.40;12.00;;;;;;;9.60;100.00;99470.00;104741;1271;466491;-70
2022/06/15 03:08:24;;;;;;;14.70;11.60;;;;;;;9.66;100.00;99469.98;105043;1271;69141;-70
2022/06/15 03:10:52;;;;;;;12.60;11.00;;;;;;;9.73;100.00;99468.75;105027;1271;73446;-69
2022/06/15 03:13:19;;;;;;;14.40;12.10;;;;;;;9.79;100.00;99465.35;105078;1271;61344;-71
2022/06/15 03:15:46;;;;;;;12.60;11.10;;;;;;;9.87;100.00;99462.80;105012;1271;62154;-70
2022/06/15 03:18:13;;;;;;;13.60;11.10;;;;;;;9.92;100.00;99461.66;105060;1271;75308;-70
2022/06/15 03:20:40;;;;;;;13.50;11.20;;;;;;;9.97;100.00;99462.43;105016;1271;70058;-70
2022/06/15 03:23:06;;;;;;;11.50;10.40;;;;;;;10.04;100.00;99465.90;104947;1274;61386;-71
2022/06/15 03:25:34;;;;;;;14.20;10.80;;;;;;;10.15;100.00;99469.20;105042;1271;61352;-69
2022/06/15 03:28:01;;;;;;;13.40;12.00;;;;;;;10.31;100.00;99466.89;105022;1271;61264;-70
2022/06/15 03:30:27;;;;;;;14.80;10.00;;;;;;;11.12;100.00;99470.53;105035;1271;75255;-70
2022/06/15 03:32:54;;;;;;;11.00;9.30;;;;;;;12.23;100.00;99462.26;104844;1271;67403;-69
2022/06/15 03:35:20;;;;;;;11.70;8.80;;;;;;;13.19;100.00;99458.73;105029;1271;61397;-70
2022/06/15 03:37:49;;;;;;;12.30;9.70;;;;;;;14.14;100.00;99459.90;104995;1271;61289;-70
2022/06/15 03:40:16;;;;;;;9.70;8.60;;;;;;;14.98;100.00;99452.48;105063;1271;61270;-70
2022/06/15 03:42:43;;;;;;;10.70;8.70;;;;;;;15.64;98.80;99457.14;104880;1271;75138;-69
2022/06/15 03:45:12;;;;;;;9.20;8.30;;;;;;;16.30;95.24;99452.70;104968;1271;69344;-69
2022/06/15 03:47:38;;;;;;;12.10;8.90;;;;;;;16.75;91.70;99455.57;105034;1271;74061;-69
2022/06/15 03:50:05;;;;;;;11.40;9.00;;;;;;;17.30;89.01;99452.79;105066;1270;61303;-70
2022/06/15 03:52:32;;;;;;;10.50;9.50;;;;;;;17.92;86.17;99451.66;104863;1271;61290;-70
2022/06/15 03:54:58;;;;;;;10.10;9.00;;;;;;;18.60;83.37;99444.50;105040;1271;76219;-68
2022/06/15 03:57:25;;;;;;;10.30;9.10;;;;;;;19.25;80.84;99445.94;104972;1271;61469;-70
2022/06/15 03:59:51;;;;;;;10.70;9.30;;;;;;;20.01;79.41;99446.33;105030;1271;61284;-70
2022/06/15 04:02:19;;;;;;;10.60;8.50;;;;;;;20.72;75.90;99439.23;105055;1271;61487;-71
2022/06/15 04:04:46;;;;;;;9.90;8.40;;;;;;;21.13;73.02;99434.86;105027;1271;62098;-70
2022/06/15 04:09:57;;;;;;;10.10;8.30;;;;;;;21.58;69.45;99435.61;105072;1271;69411;-70
2022/06/15 04:12:24;;;;;;;9.60;8.10;;;;;;;21.82;68.11;99433.95;105037;1271;72773;-70
2022/06/15 04:14:50;;;;;;;8.60;7.60;;;;;;;22.19;66.03;99432.45;104851;1273;61365;-70
2022/06/15 04:17:18;;;;;;;9.10;7.70;;;;;;;22.41;64.81;99429.00;105034;1271;61282;-70
2022/06/15 04:20:31;;;;;;;12.20;8.70;;;;;;;22.46;63.54;99426.61;105052;1271;75516;-69
2022/06/15 04:22:31;;;;;;;8.80;8.00;;;;;;;22.53;62.21;99424.56;105060;1271;69730;-70
2022/06/15 04:24:57;;;;;;;10.00;8.60;;;;;;;22.60;61.34;99423.30;105073;1271;61180;-71
2022/06/15 04:27:24;;;;;;;12.00;8.80;;;;;;;22.83;60.37;99424.31;105023;1271;61287;-72
2022/06/15 04:29:50;;;;;;;12.40;9.20;;;;;;;23.08;59.81;99425.20;105025;1271;61266;-70
2022/06/15 04:32:17;;;;;;;10.20;8.90;;;;;;;23.17;59.68;99418.98;104986;1271;61391;-70
2022/06/15 04:34:43;;;;;;;9.20;8.30;;;;;;;23.51;58.38;99421.29;105048;1271;69462;-69
2022/06/15 04:37:11;;;;;;;10.10;8.20;;;;;;;23.79;57.82;99419.89;104981;1271;61482;-69
2022/06/15 04:39:37;;;;;;;10.20;8.20;;;;;;;24.09;56.99;99417.67;105048;1271;61321;-71
2022/06/15 04:42:04;;;;;;;9.20;8.30;;;;;;;24.40;56.69;99416.83;105036;1271;61244;-71
2022/06/15 04:44:30;;;;;;;10.00;9.00;;;;;;;24.61;56.07;99412.72;105000;1271;76106;-71
2022/06/15 04:46:58;;;;;;;10.00;9.00;;;;;;;24.82;55.58;99412.02;105012;1271;70075;-71
2022/06/15 04:49:24;;;;;;;9.60;8.20;;;;;;;24.98;55.02;99412.95;105134;1270;73932;-72
2022/06/15 04:51:51;;;;;;;10.20;8.30;;;;;;;25.13;54.36;99410.39;105040;1271;61193;-69
2022/06/15 04:54:17;;;;;;;13.50;8.20;;;;;;;25.26;54.12;99410.02;105053;1271;61364;-69
2022/06/15 04:56:44;;;;;;;9.80;8.60;;;;;;;25.47;53.89;99412.66;105041;1271;61288;-70
2022/06/15 04:59:11;;;;;;;9.00;8.20;;;;;;;25.61;53.41;99411.42;105019;1271;69225;-71
2022/06/15 05:01:38;;;;;;;9.20;7.50;;;;;;;25.71;52.81;99411.21;104948;1271;73262;-70
2022/06/15 05:04:05;;;;;;;9.70;7.90;;;;;;;25.82;52.54;99410.88;105010;1271;61502;-69
2022/06/15 05:06:38;;;;;;;9.80;7.20;;;;;;;25.91;52.00;99411.76;105041;1271;61279;-70
2022/06/15 05:09:07;;;;;;;8.80;5.80;;;;;;;26.00;51.49;99409.20;105050;1271;75344;-70
2022/06/15 05:11:34;;;;;;;5.70;5.10;;;;;;;26.07;51.14;99413.08;105053;1271;69501;-70
2022/06/15 05:14:01;;;;;;;7.60;5.60;;;;;;;26.26;50.92;99412.99;105027;1271;61277;-70
2022/06/15 05:16:27;;;;;;;8.90;6.50;;;;;;;26.40;50.09;99414.00;105014;1271;61668;-70
2022/06/15 05:18:54;;;;;;;8.10;5.80;;;;;;;26.38;49.19;99418.59;105007;1271;61658;-70
2022/06/15 05:21:21;;;;;;;7.00;5.80;;;;;;;26.36;48.54;99418.98;104875;1271;76400;-71
2022/06/15 05:23:47;;;;;;;8.00;5.10;;;;;;;26.35;48.19;99425.45;105048;1270;69259;-71
2022/06/15 05:26:14;;;;;;;6.70;5.10;;;;;;;26.23;47.54;99425.02;105015;1271;61285;-71
2022/06/15 05:28:45;;;;;;;6.60;5.20;;;;;;;26.03;47.24;99425.26;104994;1271;61256;-72
2022/06/15 05:31:16;;;;;;;6.20;5.10;;;;;;;25.97;47.57;99425.82;105077;1271;61310;-70
2022/06/15 05:33:43;;;;;;;5.10;4.10;;;;;;;26.01;46.87;99428.17;105109;1271;75400;-70
2022/06/15 05:36:14;;;;;;;6.90;4.60;;;;;;;26.09;46.89;99428.69;104998;1271;68420;-70
2022/06/15 05:38:41;;;;;;;8.00;5.00;;;;;;;26.15;46.65;99431.18;105097;1270;74419;-71
2022/06/15 05:41:08;;;;;;;4.10;3.80;;;;;;;26.17;46.03;99431.52;105050;1271;61357;-71
2022/06/15 05:43:37;;;;;;;6.30;4.70;;;;;;;26.17;45.82;99427.89;105090;1271;61256;-72
2022/06/15 05:46:24;;;;;;;7.40;4.80;;;;;;;26.22;45.05;99426.03;105036;1271;75594;-69
2022/06/15 05:48:51;;;;;;;5.80;4.50;;;;;;;26.09;43.93;99421.59;105028;1271;68396;-70
2022/06/15 05:51:18;;;;;;;8.10;5.60;;;;;;;25.82;43.76;99425.52;105087;1271;73592;-70
2022/06/15 05:53:45;;;;;;;6.40;3.70;;;;;;;25.83;44.75;99427.73;105060;1271;61301;-70
2022/06/15 05:56:12;;;;;;;5.40;3.90;;;;;;;26.16;44.84;99427.01;105007;1271;61342;-70
2022/06/15 05:58:38;;;;;;;6.00;3.90;;;;;;;26.28;44.30;99428.98;105023;1271;61255;-70
2022/06/15 06:01:19;;;;;;;5.50;3.50;;;;;;;26.36;44.13;99428.90;105041;1271;70308;-70
2022/06/15 06:03:46;;;;;;;8.70;4.30;;;;;;;26.64;43.81;99431.27;105020;1271;74178;-70
2022/06/15 06:06:12;;;;;;;5.70;3.30;;;;;;;26.92;43.40;99427.40;104910;1271;61361;-70
2022/06/15 06:08:39;;;;;;;4.90;3.60;;;;;;;27.17;42.31;99435.18;105029;1271;61530;-71
2022/06/15 06:11:05;;;;;;;6.40;3.70;;;;;;;27.28;41.95;99437.42;105051;1270;75892;-70
2022/06/15 06:13:32;;;;;;;7.60;4.20;;;;;;;27.31;41.55;99434.42;104805;1271;67864;-70
2022/06/15 06:15:59;;;;;;;5.20;3.80;;;;;;;27.36;41.55;99436.35;105020;1271;74121;-71
2022/06/15 06:18:25;;;;;;;8.70;4.50;;;;;;;27.58;41.30;99439.33;104860;1271;61416;-70
2022/06/15 06:20:52;;;;;;;4.10;3.70;;;;;;;27.55;40.68;99435.36;105033;1271;61307;-71
2022/06/15 06:23:19;;;;;;;5.10;3.70;;;;;;;27.13;40.92;99440.79;104999;1271;75280;-71
2022/06/15 06:25:50;;;;;;;7.30;3.80;;;;;;;27.37;40.52;99440.86;104824;1274;69204;-70
2022/06/15 06:28:35;;;;;;;5.50;3.40;;;;;;;27.50;39.77;99441.77;105133;1271;72775;-70
2022/06/15 06:31:03;;;;;;;7.20;3.50;;;;;;;27.42;39.05;99439.58;105027;1271;61381;-75
2022/06/15 06:33:33;;;;;;;7.70;3.70;;;;;;;27.12;38.78;99441.45;105105;1271;61864;-74
2022/06/15 06:36:18;;;;;;;6.10;3.30;;;;;;;26.73;39.28;99446.25;105160;1271;75320;-76
2022/06/15 06:38:45;;;;;;;5.90;4.00;;;;;;;26.69;39.03;99449.67;105054;1271;69426;-76
2022/06/15 06:41:16;;;;;;;4.70;3.60;;;;;;;26.57;38.99;99451.98;105052;1271;74366;-76
2022/06/15 06:43:43;;;;;;;8.10;3.90;;;;;;;26.26;38.57;99451.49;105034;1271;61390;-75
2022/06/15 06:46:10;;;;;;;4.30;3.20;;;;;;;25.98;39.03;99452.60;105088;1271;62095;-75
2022/06/15 06:48:36;;;;;;;7.20;3.80;;;;;;;26.10;38.77;99451.39;104935;1271;75369;-75
2022/06/15 06:51:03;;;;;;;5.30;3.90;;;;;;;26.14;39.27;99452.48;105054;1271;69648;-75
2022/06/15 06:53:30;;;;;;;5.40;4.20;;;;;;;26.23;39.44;99453.86;105048;1271;74542;-75
2022/06/15 06:56:00;;;;;;;7.30;5.00;;;;;;;26.39;39.47;99450.25;105075;1271;61301;-75
2022/06/15 06:58:27;;;;;;;6.90;4.80;;;;;;;26.41;39.69;99450.22;105166;1271;61759;-75
2022/06/15 07:00:54;;;;;;;8.60;5.10;;;;;;;26.28;40.25;99447.23;105091;1271;76412;-75
2022/06/15 07:03:21;;;;;;;9.30;5.30;;;;;;;26.11;40.12;99444.56;105100;1271;68654;-75
2022/06/15 07:05:48;;;;;;;6.90;5.70;;;;;;;25.84;39.97;99450.39;105140;1271;73797;-76
2022/06/15 07:08:16;;;;;;;7.10;6.30;;;;;;;25.37;40.29;99454.31;105050;1271;61420;-76
2022/06/15 07:10:43;;;;;;;6.40;5.80;;;;;;;25.11;40.74;99451.94;104999;1271;61388;-75
2022/06/15 07:13:09;;;;;;;8.70;5.70;;;;;;;25.05;41.15;99453.80;104939;1271;75451;-74
2022/06/15 07:15:36;;;;;;;8.20;5.00;;;;;;;25.15;41.54;99450.24;105080;1271;70214;-75
2022/06/15 07:18:03;;;;;;;8.80;6.00;;;;;;;25.29;41.73;99444.34;105074;1271;73315;-76
2022/06/15 07:20:30;;;;;;;9.50;5.40;;;;;;;24.93;40.92;99447.52;105033;1271;61250;-75
2022/06/15 07:22:58;;;;;;;8.40;5.30;;;;;;;24.55;41.96;99451.34;105254;1271;61198;-76
2022/06/15 07:25:25;;;;;;;8.00;4.60;;;;;;;24.70;41.60;99450.86;105065;1271;75221;-75
2022/06/15 07:27:52;;;;;;;8.30;5.00;;;;;;;24.53;41.11;99456.73;104991;1271;70473;-76
2022/06/15 07:30:22;;;;;;;5.90;4.80;;;;;;;24.26;41.42;99453.23;105093;1271;72558;-76
2022/06/15 07:32:48;;;;;;;6.60;4.00;;;;;;;24.02;40.82;99454.59;105252;1271;61313;-77
2022/06/15 07:35:21;;;;;;;4.40;4.00;;;;;;;23.43;41.32;99455.42;105074;1271;61315;-75
2022/06/15 07:37:50;;;;;;;5.50;4.20;;;;;;;23.17;41.91;99455.19;105042;1271;75374;-77
2022/06/15 07:40:20;;;;;;;7.70;4.10;;;;;;;23.00;42.43;99451.71;104978;1271;69174;-75
2022/06/15 07:42:47;;;;;;;;;;;;;;;22.97;43.43;99450.60;105075;1271;73315;-75
2022/06/15 07:45:17;;;;;;;5.30;3.60;;;;;;;22.87;43.08;99444.97;105018;1274;61300;-76
2022/06/15 07:50:29;;;;;;;5.00;3.90;;;;;;;22.65;43.29;99448.88;105043;1271;75157;-76
2022/06/15 07:52:56;;;;;;;5.00;3.90;;;;;;;22.63;43.92;99447.04;105003;1271;69218;-76
2022/06/15 07:55:27;;;;;;;7.50;4.30;;;;;;;22.74;44.28;99446.77;105103;1271;73340;-76
2022/06/15 07:57:54;;;;;;;9.70;4.10;;;;;;;22.78;44.70;99445.58;105130;1271;61391;-76
2022/06/15 08:00:22;;;;;;;6.10;3.50;;;;;;;22.74;43.99;99444.91;105076;1271;61326;-76
2022/06/15 08:02:50;;;;;;;7.40;4.10;;;;;;;22.62;44.02;99443.92;105155;1271;75047;-76
2022/06/15 08:05:17;;;;;;;7.70;3.80;;;;;;;22.59;43.81;99447.83;105098;1271;69142;-75
2022/06/15 08:07:45;;;;;;;7.10;4.00;;;;;;;22.59;44.45;99447.55;105034;1271;72327;-75
2022/06/15 08:10:16;;;;;;;6.60;3.70;;;;;;;22.59;44.33;99443.50;105061;1271;61754;-76
2022/06/15 08:12:43;;;;;;;7.30;4.30;;;;;;;22.57;44.21;99445.01;105097;1271;61273;-75
2022/06/15 08:15:10;;;;;;;6.60;3.80;;;;;;;22.30;44.08;99449.89;105105;1271;75432;-75
2022/06/15 08:17:43;;;;;;;9.30;3.80;;;;;;;22.30;45.00;99446.73;105082;1271;69190;-77
2022/06/15 08:20:15;;;;;;;6.40;3.30;;;;;;;22.36;44.75;99447.13;105073;1271;74111;-76
2022/06/15 08:22:47;;;;;;;8.00;3.40;;;;;;;22.25;44.97;99444.00;105123;1271;61256;-75
2022/06/15 08:25:17;;;;;;;6.50;2.90;;;;;;;22.23;43.58;99447.13;104967;1271;61165;-75
2022/06/15 08:27:44;;;;;;;7.40;3.10;;;;;;;21.96;42.26;99447.22;105003;1271;75396;-75
2022/06/15 08:30:13;;;;;;;5.10;2.10;;;;;;;21.80;42.66;99444.65;105257;1271;70273;-75
2022/06/15 08:32:41;;;;;;;5.00;2.30;;;;;;;21.69;42.51;99446.52;105117;1271;75065;-76
2022/06/15 08:35:09;;;;;;;5.60;2.70;;;;;;;21.65;42.40;99449.52;104963;1271;61305;-76
2022/06/15 08:37:36;;;;;;;7.00;2.60;;;;;;;21.32;41.94;99453.59;105075;1271;61294;-76
2022/06/15 08:40:04;;;;;;;4.10;2.60;;;;;;;21.03;43.08;99455.58;105061;1271;74859;-76
2022/06/15 08:43:01;;;;;;;4.60;2.40;;;;;;;21.26;43.82;99447.81;105002;1274;69502;-76
2022/06/15 08:45:44;;;;;;;4.80;2.00;;;;;;;21.59;42.87;99452.67;105116;1271;73879;-75
2022/06/15 08:48:26;;;;;;;2.70;2.00;;;;;;;21.60;42.39;99453.83;105098;1271;61247;-75
2022/06/15 08:51:01;;;;;;;6.10;3.00;;;;;;;21.70;42.05;99450.82;104998;1271;61305;-75
2022/06/15 08:53:47;;;;;;;3.40;2.30;;;;;;;21.73;42.84;99450.95;105034;1271;76201;-75
2022/06/15 08:56:17;;;;;;;4.80;2.50;;;;;;;21.77;41.56;99450.38;105088;1271;69181;-76
2022/06/15 08:58:46;;;;;;;5.60;2.50;;;;;;;21.75;41.93;99451.86;105060;1271;72601;-75
2022/06/15 09:01:39;;;;;;;4.40;2.50;;;;;;;22.00;43.01;99448.59;105103;1271;61418;-74
2022/06/15 09:04:32;;;;;;;4.50;2.20;;;;;;;22.38;42.32;99448.41;105112;1271;62211;-76
2022/06/15 09:07:38;;;;;;;5.40;2.50;;;;;;;22.45;42.91;99450.70;104622;1277;74734;-76
2022/06/15 09:10:33;;;;;;;4.10;2.40;;;;;;;22.75;42.51;99448.13;104496;1278;69996;-75
2022/06/15 09:13:09;;;;;;;6.70;3.00;;;;;;;22.93;42.88;99445.04;104594;1277;74465;-75
2022/06/15 09:16:01;;;;;;;5.70;2.70;;;;;;;23.08;42.95;99449.91;104620;1277;61310;-74
2022/06/15 09:18:31;;;;;;;3.90;2.50;;;;;;;23.36;42.61;99448.18;104456;1279;61321;-74
2022/06/15 09:21:22;;;;;;;4.80;2.60;;;;;;;23.50;42.21;99444.36;104590;1277;75351;-75
2022/06/15 09:23:55;;;;;;;4.90;3.00;;;;;;;23.66;41.66;99441.66;104557;1277;70218;-75
2022/06/15 09:26:30;;;;;;;6.40;2.30;;;;;;;24.00;43.03;99439.84;104605;1277;71399;-76
2022/06/15 09:29:17;;;;;;;4.00;2.00;;;;;;;24.30;42.72;99434.46;104581;1277;61330;-74
2022/06/15 09:32:22;;;;;;;4.60;2.60;;;;;;;24.43;42.25;99435.14;104449;1277;61383;-75
2022/06/15 09:35:13;;;;;;;3.60;2.20;;;;;;;24.80;42.77;99427.67;104596;1277;75122;-74
2022/06/15 09:37:42;;;;;;;5.80;2.50;;;;;;;24.79;41.22;99427.39;104482;1278;69825;-74
2022/06/15 09:40:10;;;;;;;6.80;2.70;;;;;;;24.42;41.23;99427.06;104686;1277;74241;-74
2022/06/15 09:42:58;;;;;;;5.40;2.50;;;;;;;23.98;41.02;99434.07;104431;1277;61371;-74
2022/06/15 09:45:57;;;;;;;7.40;3.80;;;;;;;23.51;40.35;99430.36;104977;1271;62777;-76
2022/06/15 09:48:32;;;;;;;4.50;2.50;;;;;;;23.15;41.02;99431.39;105098;1271;75301;-74
2022/06/15 09:51:11;;;;;;;6.80;3.40;;;;;;;23.13;40.95;99432.27;104960;1274;69220;-75
2022/06/15 09:53:38;;;;;;;3.80;2.40;;;;;;;22.92;40.94;99432.98;105062;1271;72140;-75
2022/06/15 09:56:13;;;;;;;5.00;2.40;;;;;;;22.65;40.98;99432.55;105015;1271;61332;-75
2022/06/15 09:59:01;;;;;;;9.90;2.80;;;;;;;22.36;41.19;99432.66;105171;1271;61278;-76
2022/06/15 10:01:34;;;;;;;3.70;2.40;;;;;;;22.13;41.33;99432.96;105130;1270;75328;-75
2022/06/15 10:04:03;;;;;;;3.80;2.40;;;;;;;22.22;42.09;99431.27;105056;1271;69308;-75
2022/06/15 10:06:48;;;;;;;5.10;2.60;;;;;;;22.56;41.73;99427.55;105084;1271;73591;-75
2022/06/15 10:09:18;;;;;;;6.10;2.20;;;;;;;22.85;41.95;99422.31;105053;1271;61493;-74
2022/06/15 10:11:51;;;;;;;5.80;2.80;;;;;;;22.81;41.42;99423.02;105153;1270;61705;-75
2022/06/15 10:14:31;;;;;;;6.10;2.50;;;;;;;22.57;41.51;99420.69;105029;1271;75272;-75
2022/06/15 10:17:02;;;;;;;5.30;2.60;;;;;;;22.49;41.48;99419.50;105024;1271;68886;-75
2022/06/15 10:19:34;;;;;;;8.90;3.00;;;;;;;22.65;41.31;99415.46;105149;1271;73317;-75
2022/06/15 10:22:06;;;;;;;6.70;2.80;;;;;;;22.86;41.13;99408.85;105062;1271;61256;-75
2022/06/15 10:24:40;;;;;;;3.80;2.40;;;;;;;23.12;40.23;99405.05;105074;1271;61294;-75
2022/06/15 10:27:15;;;;;;;4.20;2.20;;;;;;;23.28;40.31;99399.60;105061;1271;76252;-75
2022/06/15 10:29:44;;;;;;;4.30;2.30;;;;;;;23.55;42.15;99403.76;105083;1271;69240;-75
2022/06/15 10:32:10;;;;;;;3.40;2.20;;;;;;;24.00;41.74;99399.34;104896;1271;70403;-75
2022/06/15 10:34:43;;;;;;;5.20;2.50;;;;;;;24.25;41.85;99396.05;104940;1272;61374;-74
2022/06/15 10:37:23;;;;;;;7.40;2.60;;;;;;;24.46;40.48;99391.98;105090;1271;61275;-73
2022/06/15 10:39:57;;;;;;;4.00;2.40;;;;;;;24.41;39.48;99386.74;105099;1271;74145;-74
2022/06/15 10:42:46;;;;;;;3.80;2.10;;;;;;;24.39;39.89;99386.55;105138;1271;68719;-75
2022/06/15 10:45:29;;;;;;;3.60;2.20;;;;;;;24.39;38.70;99377.16;105031;1271;74553;-75
2022/06/15 10:48:01;;;;;;;4.00;2.10;;;;;;;24.33;39.16;99382.91;105099;1271;61243;-74
2022/06/15 10:51:02;;;;;;;3.60;2.00;;;;;;;24.51;40.36;99376.63;105118;1271;61172;-75
2022/06/15 10:53:41;;;;;;;3.50;2.20;;;;;;;24.85;41.29;99372.55;105091;1271;76952;-75
2022/06/15 11:02:38;;;;;;;2.70;1.90;;;;;;;25.82;38.95;99368.23;104889;1271;61357;-76
2022/06/15 11:05:08;;;;;;;4.60;2.00;;;;;;;25.53;38.20;99362.95;105014;1271;62297;-75
2022/06/15 11:07:52;;;;;;;3.40;1.90;;;;;;;25.46;38.87;99369.52;105260;1271;75349;-76
2022/06/15 11:10:27;;;;;;;3.90;1.90;;;;;;;25.66;38.63;99372.71;105199;1271;70212;-76
2022/06/15 11:13:26;;;;;;;5.50;2.50;;;;;;;25.67;38.07;99374.68;105236;1271;74130;-76
2022/06/15 11:18:41;;;;;;;4.00;1.60;;;;;;;25.81;37.39;99371.90;104530;1277;62009;-76
2022/06/15 11:21:13;;;;;;;5.10;1.90;;;;;;;25.79;37.23;99373.77;104619;1277;76586;-76
2022/06/15 11:23:54;;;;;;;4.50;1.60;;;;;;;25.89;37.03;99374.75;104741;1277;69598;-77
2022/06/15 11:27:02;;;;;;;2.70;1.90;;;;;;;25.98;37.46;99368.98;104489;1279;74361;-76
2022/06/15 11:29:57;;;;;;;3.90;2.10;;;;;;;26.15;37.40;99364.13;104513;1279;61448;-75
2022/06/15 11:32:26;;;;;;;2.70;1.70;;;;;;;26.18;37.15;99363.10;104649;1277;61222;-75
2022/06/15 11:35:14;;;;;;;2.40;1.40;;;;;;;26.06;36.12;99359.15;104624;1277;75136;-77
2022/06/15 11:37:57;;;;;;;2.60;1.70;;;;;;;25.85;36.37;99360.67;104673;1277;68967;-75
2022/06/15 11:40:42;;;;;;;2.90;2.20;;;;;;;25.84;37.03;99360.02;104692;1277;72983;-76
2022/06/15 11:43:19;;;;;;;3.40;1.90;;;;;;;25.82;37.30;99361.36;104668;1277;61270;-76
2022/06/15 11:46:09;;;;;;;5.20;3.30;;;;;;;25.86;38.34;99357.95;104682;1277;61317;-76
2022/06/15 11:49:11;;;;;;;2.70;1.60;;;;;;;25.91;37.01;99360.48;104807;1277;75064;-75
2022/06/15 11:51:56;;;;;;;2.40;1.80;;;;;;;25.58;36.35;99353.30;104680;1277;69163;-76
2022/06/15 11:54:32;;;;;;;5.40;2.00;;;;;;;25.50;36.25;99351.56;105002;1271;74440;-76
2022/06/15 11:57:10;;;;;;;3.70;1.50;;;;;;;25.45;35.92;99343.98;105224;1271;61400;-75
2022/06/15 12:00:15;;;;;;;3.30;1.50;;;;;;;25.49;36.31;99342.66;105205;1271;61283;-74
2022/06/15 12:03:00;;;;;;;4.10;1.70;;;;;;;25.64;37.05;99340.73;104515;1281;76371;-75